createdAt,value
2023-05-01T00:00:53.912Z,38.44
2023-05-01T00:03:21.021Z,38.31
2023-05-01T00:05:48.367Z,38.27
2023-05-01T00:08:16.045Z,38.52
2023-05-01T00:10:42.931Z,38.25
2023-05-01T00:13:10.120Z,38.70
2023-05-01T00:15:36.870Z,38.37
2023-05-01T00:18:03.907Z,38.55
2023-05-01T00:20:31.138Z,38.47
2023-05-01T00:22:58.156Z,38.37
2023-05-01T00:25:24.973Z,38.52
2023-05-01T00:27:52.030Z,38.52
2023-05-01T00:30:18.746Z,38.46
2023-05-01T00:32:45.816Z,38.49
2023-05-01T00:35:13.378Z,38.40
2023-05-01T00:37:40.497Z,38.56
2023-05-01T00:40:08.117Z,38.80
2023-05-01T00:42:36.316Z,38.52
2023-05-01T00:45:04.088Z,38.67
2023-05-01T00:47:31.171Z,38.70
2023-05-01T00:49:58.203Z,38.58
2023-05-01T00:52:25.937Z,38.71
2023-05-01T00:54:52.676Z,38.43
2023-05-01T00:57:22.892Z,38.65
2023-05-01T00:59:49.622Z,38.67
2023-05-01T01:02:16.626Z,38.61
2023-05-01T01:04:44.867Z,38.87
2023-05-01T01:07:21.497Z,38.85
2023-05-01T01:10:03.337Z,38.72
2023-05-01T01:13:01.411Z,38.58
2023-05-01T01:15:35.428Z,38.81
2023-05-01T01:18:12.699Z,38.65
2023-05-01T01:21:06.993Z,38.87
2023-05-01T01:23:40.167Z,38.83
2023-05-01T01:26:25.094Z,38.81
2023-05-01T01:29:36.783Z,39.15
2023-05-01T01:32:10.953Z,39.02
2023-05-01T01:35:01.038Z,39.22
2023-05-01T01:37:37.239Z,39.08
2023-05-01T01:40:09.928Z,39.04
2023-05-01T01:42:38.688Z,39.10
2023-05-01T01:45:10.879Z,39.05
2023-05-01T01:47:37.708Z,39.06
2023-05-01T01:50:05.511Z,38.91
2023-05-01T01:52:33.862Z,39.12
2023-05-01T01:55:05.282Z,39.09
2023-05-01T01:57:32.100Z,39.17
2023-05-01T01:59:59.154Z,39.24
2023-05-01T02:02:27.238Z,39.21
2023-05-01T02:04:56.745Z,39.35
2023-05-01T02:07:23.505Z,39.22
2023-05-01T02:09:50.870Z,39.00
2023-05-01T02:12:18.321Z,39.30
2023-05-01T02:14:45.389Z,39.21
2023-05-01T02:17:12.085Z,39.23
2023-05-01T02:19:40.534Z,39.38
2023-05-01T02:22:07.688Z,39.11
2023-05-01T02:24:34.872Z,39.07
2023-05-01T02:27:06.504Z,39.24
2023-05-01T02:29:34.202Z,39.29
2023-05-01T02:32:01.332Z,39.28
2023-05-01T02:34:28.375Z,39.57
2023-05-01T02:36:55.119Z,39.34
2023-05-01T02:39:22.414Z,39.33
2023-05-01T02:41:49.296Z,39.46
2023-05-01T02:44:16.298Z,39.44
2023-05-01T02:46:44.904Z,39.42
2023-05-01T02:49:11.916Z,39.38
2023-05-01T02:51:38.627Z,39.48
2023-05-01T02:54:05.661Z,39.24
2023-05-01T02:56:32.661Z,39.52
2023-05-01T02:58:59.718Z,39.35
2023-05-01T03:01:27.938Z,39.37
2023-05-01T03:03:55.088Z,39.62
2023-05-01T03:06:21.961Z,39.49
2023-05-01T03:08:49.006Z,39.58
2023-05-01T03:11:15.801Z,39.69
2023-05-01T03:13:43.673Z,39.50
2023-05-01T03:16:10.469Z,39.80
2023-05-01T03:18:37.535Z,39.33
2023-05-01T03:21:04.374Z,39.38
2023-05-01T03:23:31.525Z,39.46
2023-05-01T03:25:58.973Z,39.58
2023-05-01T03:28:26.020Z,39.58
2023-05-01T03:30:53.354Z,39.60
2023-05-01T03:33:20.405Z,39.61
2023-05-01T03:35:48.004Z,39.67
2023-05-01T03:38:15.270Z,39.60
2023-05-01T03:40:42.063Z,39.75
2023-05-01T03:43:09.065Z,39.46
2023-05-01T03:45:35.759Z,39.77
2023-05-01T03:48:02.861Z,39.75
2023-05-01T03:50:29.581Z,39.58
2023-05-01T03:52:56.610Z,39.82
2023-05-01T03:55:23.347Z,39.69
2023-05-01T03:57:50.798Z,39.82
2023-05-01T04:00:17.566Z,39.71
2023-05-01T04:02:44.663Z,39.90
2023-05-01T04:05:11.486Z,39.80
2023-05-01T04:07:38.543Z,39.82
2023-05-01T04:10:07.233Z,39.81
2023-05-01T04:12:34.307Z,39.67
2023-05-01T04:15:01.150Z,39.70
2023-05-01T04:17:28.176Z,39.62
2023-05-01T04:19:55.454Z,39.74
2023-05-01T04:22:23.414Z,39.27
2023-05-01T04:24:50.306Z,39.27
2023-05-01T04:27:17.876Z,39.43
2023-05-01T04:29:44.561Z,39.46
2023-05-01T04:32:11.971Z,39.64
2023-05-01T04:34:38.889Z,39.78
2023-05-01T04:37:07.845Z,40.44
2023-05-01T04:39:36.315Z,40.35
2023-05-01T04:42:03.991Z,40.29
2023-05-01T04:44:31.070Z,40.00
2023-05-01T04:46:58.232Z,39.91
2023-05-01T04:49:24.944Z,39.92
2023-05-01T04:51:52.026Z,40.13
2023-05-01T04:54:18.769Z,40.26
2023-05-01T04:56:45.804Z,40.09
2023-05-01T04:59:12.500Z,39.82
2023-05-01T05:01:39.598Z,39.49
2023-05-01T05:04:06.569Z,39.33
2023-05-01T05:06:33.790Z,39.15
2023-05-01T05:09:00.546Z,39.28
2023-05-01T05:11:27.783Z,39.29
2023-05-01T05:13:54.510Z,39.27
2023-05-01T05:16:21.626Z,39.21
2023-05-01T05:18:48.392Z,39.12
2023-05-01T05:21:15.391Z,39.21
2023-05-01T05:23:42.151Z,39.11
2023-05-01T05:26:09.176Z,39.16
2023-05-01T05:28:35.885Z,39.05
2023-05-01T05:31:02.911Z,39.01
2023-05-01T05:33:29.969Z,39.13
2023-05-01T05:35:58.633Z,39.17
2023-05-01T05:38:25.360Z,39.15
2023-05-01T05:40:54.214Z,39.10
2023-05-01T05:43:21.133Z,38.96
2023-05-01T05:45:48.162Z,38.98
2023-05-01T05:48:15.034Z,39.07
2023-05-01T05:50:42.078Z,38.68
2023-05-01T05:53:09.982Z,38.90
2023-05-01T05:55:36.986Z,38.76
2023-05-01T05:58:03.690Z,38.76
2023-05-01T06:00:30.918Z,38.75
2023-05-01T06:02:58.077Z,38.67
2023-05-01T06:05:25.264Z,38.59
2023-05-01T06:07:52.070Z,38.66
2023-05-01T06:10:19.388Z,38.56
2023-05-01T06:12:53.729Z,38.58
2023-05-01T06:15:29.603Z,38.52
2023-05-01T06:17:56.788Z,38.73
2023-05-01T06:20:23.820Z,38.47
2023-05-01T06:22:50.671Z,38.44
2023-05-01T06:25:17.767Z,38.57
2023-05-01T06:27:44.469Z,38.41
2023-05-01T06:30:11.733Z,38.51
2023-05-01T06:32:38.484Z,38.21
2023-05-01T06:35:06.315Z,38.08
2023-05-01T06:37:33.053Z,38.23
2023-05-01T06:40:00.361Z,38.24
2023-05-01T06:42:27.077Z,38.09
2023-05-01T06:44:54.098Z,37.92
2023-05-01T06:47:21.498Z,38.13
2023-05-01T06:49:48.776Z,37.91
2023-05-01T06:52:15.463Z,37.87
2023-05-01T06:54:42.528Z,37.79
2023-05-01T06:57:09.250Z,37.83
2023-05-01T06:59:36.440Z,37.59
2023-05-01T07:02:03.176Z,37.85
2023-05-01T07:04:31.464Z,37.78
2023-05-01T07:06:58.204Z,37.65
2023-05-01T07:09:25.463Z,37.60
2023-05-01T07:11:52.227Z,37.44
2023-05-01T07:14:19.198Z,37.44
2023-05-01T07:16:46.728Z,37.34
2023-05-01T07:19:14.019Z,37.09
2023-05-01T07:21:41.365Z,37.21
2023-05-01T07:24:08.424Z,36.74
2023-05-01T07:26:35.262Z,37.00
2023-05-01T07:29:02.311Z,36.81
2023-05-01T07:31:29.006Z,36.84
2023-05-01T07:33:56.749Z,36.79
2023-05-01T07:36:24.056Z,36.75
2023-05-01T07:38:51.042Z,36.72
2023-05-01T07:41:17.847Z,36.40
2023-05-01T07:43:44.833Z,36.13
2023-05-01T07:46:11.666Z,36.11
2023-05-01T07:48:39.104Z,35.52
2023-05-01T07:51:05.992Z,36.19
2023-05-01T07:53:33.230Z,35.91
2023-05-01T07:56:09.772Z,35.94
2023-05-01T07:58:37.212Z,36.13
2023-05-01T08:01:04.053Z,36.11
2023-05-01T08:03:31.442Z,35.92
2023-05-01T08:05:58.494Z,36.04
2023-05-01T08:08:25.544Z,35.62
2023-05-01T08:10:52.661Z,35.33
2023-05-01T08:13:19.650Z,35.15
2023-05-01T08:15:47.213Z,35.29
2023-05-01T08:18:20.230Z,34.42
2023-05-01T08:20:50.712Z,35.25
2023-05-01T08:23:17.814Z,35.11
2023-05-01T08:25:46.946Z,34.64
2023-05-01T08:28:14.753Z,34.77
2023-05-01T08:30:41.532Z,34.24
2023-05-01T08:33:08.429Z,34.87
2023-05-01T08:35:35.578Z,34.26
2023-05-01T08:38:02.292Z,34.21
2023-05-01T08:40:31.977Z,34.67
2023-05-01T08:43:00.689Z,35.30
2023-05-01T08:45:27.844Z,34.56
2023-05-01T08:47:55.127Z,35.35
2023-05-01T08:50:22.807Z,35.18
2023-05-01T08:52:50.941Z,35.08
2023-05-01T08:55:17.976Z,35.06
2023-05-01T08:57:48.224Z,34.57
2023-05-01T09:00:19.164Z,34.59
2023-05-01T09:02:47.167Z,34.87
2023-05-01T09:05:18.373Z,34.72
2023-05-01T09:07:48.014Z,34.91
2023-05-01T09:10:19.065Z,35.19
2023-05-01T09:12:47.752Z,35.50
2023-05-01T09:15:15.025Z,34.62
2023-05-01T09:17:42.174Z,34.92
2023-05-01T09:20:09.975Z,34.87
2023-05-01T09:22:36.915Z,34.88
2023-05-01T09:25:04.408Z,35.25
2023-05-01T09:27:35.312Z,35.21
2023-05-01T09:30:02.572Z,35.22
2023-05-01T09:32:29.423Z,35.13
2023-05-01T09:35:09.396Z,35.00
2023-05-01T09:37:36.643Z,34.95
2023-05-01T09:40:14.309Z,34.35
2023-05-01T09:42:51.502Z,34.33
2023-05-01T09:45:19.291Z,34.21
2023-05-01T09:47:46.332Z,34.46
2023-05-01T09:50:35.110Z,34.45
2023-05-01T09:53:02.769Z,34.08
2023-05-01T09:55:30.114Z,34.53
2023-05-01T09:57:58.768Z,34.18
2023-05-01T10:00:27.315Z,34.14
2023-05-01T10:02:54.161Z,34.36
2023-05-01T10:05:21.447Z,33.91
2023-05-01T10:08:02.480Z,34.00
2023-05-01T10:10:29.740Z,33.81
2023-05-01T10:12:56.612Z,33.87
2023-05-01T10:15:26.965Z,34.04
2023-05-01T10:17:54.313Z,34.31
2023-05-01T10:20:21.861Z,33.88
2023-05-01T10:22:49.197Z,33.94
2023-05-01T10:25:16.803Z,34.06
2023-05-01T10:27:43.617Z,33.55
2023-05-01T10:30:11.293Z,33.30
2023-05-01T10:32:38.274Z,34.03
2023-05-01T10:35:12.668Z,33.74
2023-05-01T10:37:48.717Z,33.38
2023-05-01T10:40:41.039Z,33.53
2023-05-01T10:43:18.045Z,33.42
2023-05-01T10:45:45.706Z,33.80
2023-05-01T10:48:12.898Z,33.44
2023-05-01T10:51:20.462Z,33.65
2023-05-01T10:54:13.094Z,33.50
2023-05-01T10:56:41.573Z,33.76
2023-05-01T10:59:09.129Z,33.56
2023-05-01T11:01:45.110Z,33.24
2023-05-01T11:04:24.805Z,32.99
2023-05-01T11:07:11.186Z,31.92
2023-05-01T11:09:54.280Z,32.61
2023-05-01T11:12:46.403Z,32.52
2023-05-01T11:15:25.042Z,32.20
2023-05-01T11:17:52.479Z,32.47
2023-05-01T11:20:25.156Z,31.94
2023-05-01T11:22:53.154Z,32.05
2023-05-01T11:25:33.225Z,32.09
2023-05-01T11:28:01.842Z,31.98
2023-05-01T11:30:41.245Z,31.73
2023-05-01T11:33:10.645Z,31.24
2023-05-01T11:35:39.099Z,31.47
2023-05-01T11:38:06.203Z,31.65
2023-05-01T11:40:34.425Z,31.15
2023-05-01T11:43:05.296Z,31.49
2023-05-01T11:45:32.202Z,32.09
2023-05-01T11:48:01.322Z,31.76
2023-05-01T11:50:37.568Z,31.63
2023-05-01T11:53:08.778Z,31.96
2023-05-01T11:55:35.783Z,31.93
2023-05-01T11:58:04.965Z,31.94
2023-05-01T12:00:33.865Z,32.21
2023-05-01T12:03:14.578Z,32.43
2023-05-01T12:05:45.374Z,31.86
2023-05-01T12:08:19.365Z,31.87
2023-05-01T12:10:56.231Z,31.34
2023-05-01T12:13:23.704Z,31.31
2023-05-01T12:15:54.498Z,31.12
2023-05-01T12:18:21.984Z,30.91
2023-05-01T12:20:53.020Z,30.94
2023-05-01T12:23:31.684Z,31.21
2023-05-01T12:25:58.446Z,31.09
2023-05-01T12:28:27.421Z,31.28
2023-05-01T12:30:57.740Z,31.23
2023-05-01T12:33:24.732Z,31.74
2023-05-01T12:35:51.680Z,31.22
2023-05-01T12:38:22.573Z,31.21
2023-05-01T12:40:53.801Z,31.38
2023-05-01T12:43:21.775Z,31.14
2023-05-01T12:45:53.399Z,31.08
2023-05-01T12:48:20.775Z,31.53
2023-05-01T12:50:54.312Z,31.71
2023-05-01T12:53:23.283Z,31.73
2023-05-01T12:55:51.839Z,31.54
2023-05-01T12:58:19.056Z,31.91
2023-05-01T13:00:46.718Z,31.79
2023-05-01T13:03:16.982Z,31.74
2023-05-01T13:06:00.331Z,31.88
2023-05-01T13:08:31.129Z,31.51
2023-05-01T13:11:00.392Z,31.89
2023-05-01T13:13:31.744Z,31.92
2023-05-01T13:16:12.364Z,31.57
2023-05-01T13:18:49.954Z,31.36
2023-05-01T13:21:21.821Z,31.72
2023-05-01T13:23:56.269Z,31.08
2023-05-01T13:26:31.480Z,31.24
2023-05-01T13:29:00.047Z,31.58
2023-05-01T13:31:26.923Z,31.68
2023-05-01T13:33:54.673Z,31.12
2023-05-01T13:36:25.793Z,31.72
2023-05-01T13:38:56.224Z,31.66
2023-05-01T13:41:25.799Z,31.79
2023-05-01T13:43:54.092Z,31.39
2023-05-01T13:46:22.847Z,31.71
2023-05-01T13:48:50.122Z,31.81
2023-05-01T13:51:26.451Z,31.64
2023-05-01T13:53:54.248Z,31.81
2023-05-01T13:56:21.926Z,31.75
2023-05-01T13:58:50.376Z,31.54
2023-05-01T14:01:19.023Z,31.04
2023-05-01T14:03:46.371Z,31.59
2023-05-01T14:06:14.065Z,31.59
2023-05-01T14:08:41.189Z,31.59
2023-05-01T14:11:08.287Z,31.97
2023-05-01T14:13:45.546Z,31.37
2023-05-01T14:16:22.277Z,31.90
2023-05-01T14:18:49.372Z,31.52
2023-05-01T14:21:17.230Z,31.61
2023-05-01T14:23:44.335Z,31.52
2023-05-01T14:26:11.691Z,31.56
2023-05-01T14:28:41.585Z,31.35
2023-05-01T14:31:08.776Z,30.80
2023-05-01T14:33:41.664Z,31.34
2023-05-01T14:36:08.369Z,30.86
2023-05-01T14:38:39.356Z,31.13
2023-05-01T14:41:06.440Z,31.18
2023-05-01T14:43:33.828Z,31.09
2023-05-01T14:46:00.733Z,31.08
2023-05-01T14:48:35.199Z,31.03
2023-05-01T14:51:07.320Z,30.52
2023-05-01T14:53:34.322Z,30.06
2023-05-01T14:56:01.074Z,29.98
2023-05-01T14:58:28.105Z,30.53
2023-05-01T15:00:55.257Z,30.28
2023-05-01T15:03:22.427Z,30.29
2023-05-01T15:05:49.247Z,30.78
2023-05-01T15:08:16.726Z,29.92
2023-05-01T15:10:44.993Z,29.77
2023-05-01T15:13:12.276Z,30.05
2023-05-01T15:15:38.986Z,30.12
2023-05-01T15:18:06.485Z,30.67
2023-05-01T15:20:33.175Z,30.66
2023-05-01T15:23:00.229Z,30.46
2023-05-01T15:25:27.029Z,30.67
2023-05-01T15:27:54.622Z,30.90
2023-05-01T15:30:21.550Z,30.87
2023-05-01T15:32:48.698Z,30.55
2023-05-01T15:35:16.595Z,30.57
2023-05-01T15:37:43.662Z,30.75
2023-05-01T15:40:10.550Z,31.00
2023-05-01T15:42:37.632Z,30.91
2023-05-01T15:45:04.802Z,30.29
2023-05-01T15:47:31.958Z,30.90
2023-05-01T15:49:58.888Z,30.84
2023-05-01T15:52:27.153Z,31.08
2023-05-01T15:54:54.977Z,31.28
2023-05-01T15:57:22.032Z,31.23
2023-05-01T15:59:53.879Z,31.21
2023-05-01T16:02:21.711Z,30.63
2023-05-01T16:04:48.838Z,30.95
2023-05-01T16:07:16.002Z,30.91
2023-05-01T16:09:42.978Z,30.35
2023-05-01T16:12:10.107Z,30.50
2023-05-01T16:14:39.369Z,30.96
2023-05-01T16:17:06.670Z,30.72
2023-05-01T16:19:33.655Z,30.32
2023-05-01T16:22:03.281Z,29.77
2023-05-01T16:24:36.777Z,30.83
2023-05-01T16:27:03.983Z,31.36
2023-05-01T16:29:34.448Z,31.44
2023-05-01T16:32:03.477Z,30.61
2023-05-01T16:34:30.237Z,30.19
2023-05-01T16:36:57.364Z,30.17
2023-05-01T16:39:24.326Z,29.62
2023-05-01T16:41:52.695Z,30.34
2023-05-01T16:44:20.533Z,31.26
2023-05-01T16:46:58.580Z,31.37
2023-05-01T16:49:27.614Z,31.91
2023-05-01T16:51:58.718Z,31.24
2023-05-01T16:54:31.993Z,31.90
2023-05-01T16:56:59.418Z,31.07
2023-05-01T16:59:28.064Z,30.52
2023-05-01T17:01:55.368Z,31.05
2023-05-01T17:04:22.346Z,30.38
2023-05-01T17:06:49.618Z,30.00
2023-05-01T17:09:16.537Z,30.28
2023-05-01T17:11:43.587Z,30.79
2023-05-01T17:14:10.395Z,30.48
2023-05-01T17:16:37.435Z,31.09
2023-05-01T17:19:08.800Z,30.73
2023-05-01T17:21:36.138Z,30.79
2023-05-01T17:24:03.203Z,30.56
2023-05-01T17:26:30.258Z,30.50
2023-05-01T17:28:57.488Z,30.60
2023-05-01T17:31:24.654Z,30.56
2023-05-01T17:33:51.449Z,30.42
2023-05-01T17:36:18.418Z,30.33
2023-05-01T17:38:45.292Z,30.46
2023-05-01T17:41:12.358Z,31.01
2023-05-01T17:43:39.201Z,31.12
2023-05-01T17:46:06.549Z,30.90
2023-05-01T17:48:33.332Z,30.92
2023-05-01T17:51:00.429Z,31.14
2023-05-01T17:53:27.329Z,31.08
2023-05-01T17:55:54.385Z,31.49
2023-05-01T17:58:21.346Z,30.90
2023-05-01T18:00:48.577Z,30.88
2023-05-01T18:03:15.536Z,30.78
2023-05-01T18:05:42.937Z,31.07
2023-05-01T18:08:09.691Z,30.84
2023-05-01T18:10:36.770Z,30.58
2023-05-01T18:13:03.600Z,30.63
2023-05-01T18:15:30.780Z,31.34
2023-05-01T18:17:57.589Z,31.22
2023-05-01T18:20:24.895Z,31.18
2023-05-01T18:22:54.185Z,31.14
2023-05-01T18:25:21.327Z,31.01
2023-05-01T18:27:49.194Z,30.97
2023-05-01T18:30:16.959Z,31.27
2023-05-01T18:32:47.381Z,31.12
2023-05-01T18:35:17.104Z,31.41
2023-05-01T18:37:44.443Z,31.50
2023-05-01T18:40:12.646Z,31.48
2023-05-01T18:42:42.772Z,31.88
2023-05-01T18:45:10.265Z,31.71
2023-05-01T18:47:37.096Z,32.14
2023-05-01T18:50:05.704Z,31.45
2023-05-01T18:52:32.803Z,31.35
2023-05-01T18:54:59.925Z,32.00
2023-05-01T18:57:28.704Z,31.89
2023-05-01T18:59:55.867Z,32.02
2023-05-01T19:02:22.953Z,32.08
2023-05-01T19:04:57.575Z,31.95
2023-05-01T19:07:26.695Z,32.44
2023-05-01T19:09:53.932Z,32.57
2023-05-01T19:12:20.871Z,32.69
2023-05-01T19:14:48.079Z,32.46
2023-05-01T19:17:14.897Z,32.35
2023-05-01T19:19:42.190Z,32.46
2023-05-01T19:22:09.038Z,32.46
2023-05-01T19:24:36.968Z,32.38
2023-05-01T19:27:03.899Z,33.02
2023-05-01T19:29:31.820Z,32.86
2023-05-01T19:32:00.308Z,33.03
2023-05-01T19:34:28.051Z,33.03
2023-05-01T19:37:00.449Z,33.06
2023-05-01T19:39:29.132Z,33.28
2023-05-01T19:41:55.990Z,33.21
2023-05-01T19:44:23.145Z,32.96
2023-05-01T19:46:49.968Z,33.34
2023-05-01T19:49:18.260Z,33.25
2023-05-01T19:51:46.430Z,33.12
2023-05-01T19:54:15.464Z,33.12
2023-05-01T19:56:42.494Z,33.45
2023-05-01T19:59:10.048Z,33.53
2023-05-01T20:01:38.829Z,33.68
2023-05-01T20:04:06.090Z,33.93
2023-05-01T20:06:34.203Z,33.42
2023-05-01T20:09:01.383Z,33.61
2023-05-01T20:11:28.200Z,33.68
2023-05-01T20:13:55.342Z,34.13
2023-05-01T20:16:22.519Z,34.06
2023-05-01T20:18:49.650Z,33.88
2023-05-01T20:21:16.495Z,33.66
2023-05-01T20:23:45.220Z,33.90
2023-05-01T20:26:12.252Z,34.01
2023-05-01T20:28:39.444Z,33.75
2023-05-01T20:31:06.269Z,33.73
2023-05-01T20:33:33.400Z,33.74
2023-05-01T20:36:01.865Z,34.29
2023-05-01T20:38:29.027Z,33.79
2023-05-01T20:40:55.928Z,34.38
2023-05-01T20:43:23.065Z,33.99
2023-05-01T20:45:49.904Z,34.31
2023-05-01T20:48:16.958Z,34.31
2023-05-01T20:50:45.541Z,34.04
2023-05-01T20:53:12.583Z,34.09
2023-05-01T20:55:39.379Z,33.85
2023-05-01T20:58:07.299Z,34.04
2023-05-01T21:00:34.113Z,34.13
2023-05-01T21:03:01.543Z,34.30
2023-05-01T21:05:28.364Z,34.27
2023-05-01T21:07:56.760Z,34.73
2023-05-01T21:10:23.812Z,34.58
2023-05-01T21:12:51.166Z,34.65
2023-05-01T21:15:18.006Z,34.06
2023-05-01T21:17:45.120Z,34.28
2023-05-01T21:20:19.290Z,34.49
2023-05-01T21:22:48.599Z,34.35
2023-05-01T21:25:19.912Z,34.76
2023-05-01T21:27:46.940Z,34.41
2023-05-01T21:30:15.119Z,34.69
2023-05-01T21:32:42.562Z,34.63
2023-05-01T21:35:11.537Z,34.57
2023-05-01T21:37:40.126Z,34.38
2023-05-01T21:40:07.542Z,34.55
2023-05-01T21:42:35.759Z,34.57
2023-05-01T21:45:06.917Z,34.50
2023-05-01T21:47:38.256Z,34.51
2023-05-01T21:50:06.701Z,34.64
2023-05-01T21:52:34.713Z,34.64
2023-05-01T21:55:03.606Z,34.76
2023-05-01T21:57:31.696Z,34.77
2023-05-01T22:00:01.282Z,34.76
2023-05-01T22:02:31.476Z,35.10
2023-05-01T22:04:58.597Z,35.11
2023-05-01T22:07:25.845Z,34.86
2023-05-01T22:09:52.643Z,35.23
2023-05-01T22:12:20.097Z,34.92
2023-05-01T22:14:47.862Z,34.73
2023-05-01T22:17:15.072Z,34.93
2023-05-01T22:19:42.157Z,34.97
2023-05-01T22:22:09.208Z,35.29
2023-05-01T22:24:36.260Z,35.16
2023-05-01T22:27:03.366Z,35.26
2023-05-01T22:29:30.066Z,35.20
2023-05-01T22:31:57.241Z,35.21
2023-05-01T22:34:24.050Z,34.98
2023-05-01T22:36:51.143Z,35.01
2023-05-01T22:39:17.889Z,35.39
2023-05-01T22:41:45.093Z,35.45
2023-05-01T22:44:11.814Z,35.22
2023-05-01T22:46:38.923Z,35.23
2023-05-01T22:49:05.716Z,35.49
2023-05-01T22:51:32.807Z,35.33
2023-05-01T22:53:59.509Z,35.33
2023-05-01T22:56:26.773Z,35.38
2023-05-01T22:58:55.479Z,35.24
2023-05-01T23:01:27.137Z,35.20
2023-05-01T23:03:54.213Z,35.55
2023-05-01T23:06:21.617Z,35.29
2023-05-01T23:08:52.609Z,35.20
2023-05-01T23:11:21.444Z,35.48
2023-05-01T23:13:49.892Z,35.33
2023-05-01T23:16:17.176Z,35.09
2023-05-01T23:18:44.133Z,35.51
2023-05-01T23:21:12.501Z,35.65
2023-05-01T23:23:43.152Z,35.67
2023-05-01T23:26:26.171Z,35.59
2023-05-01T23:28:53.264Z,35.37
2023-05-01T23:31:27.158Z,35.41
2023-05-01T23:33:54.946Z,35.53
2023-05-01T23:36:22.496Z,35.49
2023-05-01T23:38:49.736Z,35.30
2023-05-01T23:41:16.865Z,35.33
2023-05-01T23:43:46.334Z,35.64
2023-05-01T23:46:13.783Z,35.81
2023-05-01T23:48:40.635Z,35.85
2023-05-01T23:51:07.684Z,35.51
2023-05-01T23:53:34.429Z,35.78
2023-05-01T23:56:01.534Z,35.52
2023-05-01T23:58:28.291Z,35.39
